Time;durP1;ratioP1;P1;durP2;ratioP2;P2;SDS_P1;SDS_P2;PMS_P1;PMS_P2;Temp;Humidity;BMP_temperature;BMP_pressure;BME280_temperature;BME280_humidity;BME280_pressure;Samples;Min_cycle;Max_cycle;Signal;HPM_P1;HPM_P2
2023/09/16 00:00:09;;;;;;;3.03;2.37;;;20.60;99.90;;;;;;4954560;29;21170;-77
2023/09/16 00:02:36;;;;;;;2.97;1.93;;;20.60;99.90;;;;;;4954750;29;20575;-77
2023/09/16 00:05:03;;;;;;;2.50;1.80;;;20.60;99.90;;;;;;4954556;29;20584;-76
2023/09/16 00:07:29;;;;;;;2.60;1.90;;;20.70;99.90;;;;;;4924509;29;20704;-76
2023/09/16 00:09:56;;;;;;;3.10;1.77;;;20.70;99.90;;;;;;4952276;29;20947;-76
2023/09/16 00:12:26;;;;;;;3.13;1.87;;;20.70;99.90;;;;;;4943249;29;20960;-77
2023/09/16 00:14:52;;;;;;;3.00;2.20;;;20.70;99.90;;;;;;4950097;29;20603;-77
2023/09/16 00:17:19;;;;;;;3.30;1.93;;;20.70;99.90;;;;;;4954609;29;21125;-76
2023/09/16 00:19:44;;;;;;;2.53;1.60;;;20.70;99.90;;;;;;4943651;29;20659;-77
2023/09/16 00:22:10;;;;;;;2.70;1.80;;;20.70;99.90;;;;;;4939759;29;20584;-77
2023/09/16 00:24:36;;;;;;;3.13;1.80;;;20.60;99.90;;;;;;4946467;28;20262;-77
2023/09/16 00:27:03;;;;;;;3.10;1.97;;;20.70;99.90;;;;;;4953064;29;20327;-77
2023/09/16 00:29:29;;;;;;;2.67;1.87;;;20.60;99.90;;;;;;4953041;29;21215;-76
2023/09/16 00:31:55;;;;;;;2.60;1.60;;;20.60;99.90;;;;;;4952730;29;20674;-77
2023/09/16 00:34:21;;;;;;;2.80;1.73;;;20.60;99.90;;;;;;4953193;29;20931;-77
2023/09/16 00:36:47;;;;;;;2.00;1.33;;;20.60;99.90;;;;;;4938381;29;20185;-77
2023/09/16 00:39:13;;;;;;;3.00;2.20;;;20.60;99.90;;;;;;4936389;29;20200;-77
2023/09/16 00:41:40;;;;;;;2.87;1.97;;;20.60;99.90;;;;;;4946101;29;20576;-78
2023/09/16 00:44:06;;;;;;;3.13;1.73;;;20.60;99.90;;;;;;4944943;29;20618;-78
2023/09/16 00:46:31;;;;;;;2.40;1.40;;;20.60;99.90;;;;;;4953201;29;20577;-78
2023/09/16 00:48:58;;;;;;;2.93;2.13;;;20.50;99.90;;;;;;4936488;29;21434;-77
2023/09/16 00:51:24;;;;;;;3.93;1.90;;;20.60;99.90;;;;;;4952470;29;20170;-77
2023/09/16 00:53:51;;;;;;;2.73;1.80;;;20.60;99.90;;;;;;4935593;29;20647;-76
2023/09/16 00:56:17;;;;;;;3.50;2.10;;;20.60;99.90;;;;;;4922548;29;20590;-76
2023/09/16 00:58:43;;;;;;;4.53;2.03;;;20.60;99.90;;;;;;4945651;29;20680;-76
2023/09/16 01:01:10;;;;;;;2.40;1.57;;;20.60;99.90;;;;;;4948768;29;20668;-75
2023/09/16 01:03:36;;;;;;;2.47;1.83;;;20.60;99.90;;;;;;4948471;29;20576;-75
2023/09/16 01:06:04;;;;;;;2.20;1.40;;;20.60;99.90;;;;;;4943764;29;20619;-77
2023/09/16 01:08:36;;;;;;;2.00;1.40;;;20.60;99.90;;;;;;4952566;29;20951;-77
2023/09/16 01:11:05;;;;;;;3.10;1.50;;;20.60;99.90;;;;;;4936033;29;20599;-76
2023/09/16 01:13:35;;;;;;;2.73;1.70;;;20.50;99.90;;;;;;4939538;29;20594;-76
2023/09/16 01:16:30;;;;;;;3.43;1.80;;;20.50;99.90;;;;;;4927614;29;20585;-77
2023/09/16 01:19:08;;;;;;;3.93;2.00;;;20.50;99.90;;;;;;4928013;29;20663;-76
2023/09/16 01:21:34;;;;;;;2.60;1.90;;;20.40;99.90;;;;;;4953329;29;20584;-76
2023/09/16 01:24:15;;;;;;;2.70;1.80;;;20.40;99.90;;;;;;4928358;29;20610;-78
2023/09/16 01:26:41;;;;;;;5.97;3.50;;;20.30;99.90;;;;;;4936316;29;20631;-78
2023/09/16 01:29:07;;;;;;;3.37;1.60;;;20.30;99.90;;;;;;4937493;29;20629;-76
2023/09/16 01:31:33;;;;;;;1.80;1.30;;;20.20;99.90;;;;;;4942546;29;20191;-76
2023/09/16 01:34:05;;;;;;;2.90;1.80;;;20.20;99.90;;;;;;4951699;29;20683;-76
2023/09/16 01:36:34;;;;;;;4.10;2.33;;;20.10;99.90;;;;;;4935450;29;20188;-76
2023/09/16 01:39:03;;;;;;;3.00;1.60;;;20.10;99.90;;;;;;4951263;29;20711;-77
2023/09/16 01:41:31;;;;;;;3.87;2.77;;;20.10;99.90;;;;;;4912111;29;20623;-77
2023/09/16 01:43:57;;;;;;;3.10;2.00;;;20.10;99.90;;;;;;4951413;29;20595;-77
2023/09/16 01:46:23;;;;;;;4.90;1.30;;;20.10;99.90;;;;;;4951670;29;20584;-77
2023/09/16 01:48:48;;;;;;;2.67;1.73;;;20.10;99.90;;;;;;4951348;29;20626;-77
2023/09/16 01:51:14;;;;;;;2.30;1.53;;;20.00;99.90;;;;;;4952702;29;20495;-77
2023/09/16 01:53:41;;;;;;;2.30;1.70;;;20.00;99.90;;;;;;4935706;29;20207;-77
2023/09/16 01:56:07;;;;;;;2.93;2.10;;;20.00;99.90;;;;;;4951479;29;20592;-77
2023/09/16 01:58:33;;;;;;;3.43;1.60;;;20.00;99.90;;;;;;4951345;29;20578;-77
2023/09/16 02:00:58;;;;;;;3.00;1.40;;;19.90;99.90;;;;;;4936290;29;20181;-77
2023/09/16 02:03:24;;;;;;;2.70;2.00;;;19.90;99.90;;;;;;4950539;29;20177;-77
2023/09/16 02:05:50;;;;;;;4.13;2.20;;;19.80;99.90;;;;;;4949908;29;20181;-76
2023/09/16 02:08:16;;;;;;;3.30;2.50;;;19.80;99.90;;;;;;4937023;29;20679;-76
2023/09/16 02:10:42;;;;;;;3.10;2.30;;;19.80;99.90;;;;;;4951332;29;20283;-77
2023/09/16 02:13:07;;;;;;;3.30;2.30;;;19.70;99.90;;;;;;4951095;29;20180;-77
2023/09/16 02:15:34;;;;;;;5.90;2.57;;;19.70;99.90;;;;;;4935396;29;20187;-77
2023/09/16 02:18:00;;;;;;;2.90;2.00;;;19.60;99.90;;;;;;4931261;29;20204;-77
2023/09/16 02:20:27;;;;;;;2.13;1.60;;;19.60;99.90;;;;;;4923834;29;20596;-77
2023/09/16 02:22:53;;;;;;;3.50;2.50;;;19.60;99.90;;;;;;4950895;29;20610;-77
2023/09/16 02:25:18;;;;;;;2.10;1.80;;;19.60;99.90;;;;;;4947077;29;20180;-77
2023/09/16 02:27:44;;;;;;;3.00;2.30;;;19.60;99.90;;;;;;4931839;29;20176;-76
2023/09/16 02:30:11;;;;;;;3.23;2.20;;;19.50;99.90;;;;;;4950848;29;20180;-76
2023/09/16 02:32:37;;;;;;;3.23;2.10;;;19.50;99.90;;;;;;4943072;29;20683;-76
2023/09/16 02:35:03;;;;;;;3.20;2.03;;;19.50;99.90;;;;;;4946601;29;20703;-76
2023/09/16 02:37:29;;;;;;;3.20;2.00;;;19.40;99.90;;;;;;4918446;29;20600;-75
2023/09/16 02:39:55;;;;;;;3.20;2.17;;;19.40;99.90;;;;;;4932564;29;20663;-75
2023/09/16 02:42:21;;;;;;;3.47;2.50;;;19.40;99.90;;;;;;4950678;29;20195;-75
2023/09/16 02:44:48;;;;;;;3.80;2.03;;;19.40;99.90;;;;;;4951014;29;20591;-74
2023/09/16 02:47:14;;;;;;;2.70;2.20;;;19.40;99.90;;;;;;4935123;28;20584;-75
2023/09/16 02:49:40;;;;;;;3.67;2.47;;;19.30;99.90;;;;;;4955171;29;20565;-75
2023/09/16 02:52:05;;;;;;;3.47;2.60;;;19.30;99.90;;;;;;4930774;29;20622;-76
2023/09/16 02:54:31;;;;;;;2.53;1.97;;;19.30;99.90;;;;;;4955146;29;20176;-76
2023/09/16 02:56:57;;;;;;;3.57;2.50;;;19.30;99.90;;;;;;4923888;29;20280;-76
2023/09/16 02:59:22;;;;;;;3.00;2.70;;;19.30;99.90;;;;;;4954812;29;20219;-76
2023/09/16 03:01:48;;;;;;;3.47;1.90;;;19.30;99.90;;;;;;4946526;29;20213;-76
2023/09/16 03:04:14;;;;;;;3.03;2.37;;;19.20;99.90;;;;;;4923622;29;20168;-76
2023/09/16 03:06:43;;;;;;;2.80;1.87;;;19.30;99.90;;;;;;4938968;29;20683;-76
2023/09/16 03:09:08;;;;;;;3.20;2.33;;;19.30;99.90;;;;;;4955608;29;20744;-76
2023/09/16 03:11:37;;;;;;;2.70;2.20;;;19.30;99.90;;;;;;4954174;29;20188;-76
2023/09/16 03:14:03;;;;;;;2.90;2.30;;;19.30;99.90;;;;;;4944774;29;20193;-76
2023/09/16 03:16:29;;;;;;;3.47;2.37;;;19.30;99.90;;;;;;4932648;29;20599;-76
2023/09/16 03:18:57;;;;;;;4.63;2.23;;;19.30;99.90;;;;;;4954076;29;20208;-76
2023/09/16 03:21:25;;;;;;;4.23;2.70;;;19.30;99.90;;;;;;4938274;29;21167;-76
2023/09/16 03:23:56;;;;;;;3.13;2.20;;;19.30;99.90;;;;;;4928826;29;20603;-76
2023/09/16 03:26:22;;;;;;;3.80;2.67;;;19.30;99.90;;;;;;4924768;29;20943;-76
2023/09/16 03:28:53;;;;;;;3.90;2.50;;;19.20;99.90;;;;;;4927193;29;20625;-76
2023/09/16 03:31:24;;;;;;;3.83;3.00;;;19.20;99.90;;;;;;4954129;29;21149;-76
2023/09/16 03:33:50;;;;;;;3.57;2.37;;;19.20;99.90;;;;;;4954252;29;20591;-76
2023/09/16 03:36:16;;;;;;;3.10;1.93;;;19.20;99.90;;;;;;4900263;29;20181;-76
2023/09/16 03:38:49;;;;;;;3.33;2.40;;;19.20;99.90;;;;;;4929234;29;20662;-77
2023/09/16 03:41:16;;;;;;;3.53;2.80;;;19.20;99.90;;;;;;4953566;29;20643;-76
2023/09/16 03:43:45;;;;;;;3.93;2.80;;;19.20;99.90;;;;;;4947989;29;21009;-76
2023/09/16 03:46:10;;;;;;;3.67;2.50;;;19.20;99.90;;;;;;4953696;29;20679;-75
2023/09/16 03:48:37;;;;;;;2.90;2.47;;;19.20;99.90;;;;;;4938038;29;20239;-76
2023/09/16 03:51:06;;;;;;;2.90;2.30;;;19.20;99.90;;;;;;4953281;29;20626;-76
2023/09/16 03:53:34;;;;;;;3.63;2.40;;;19.20;99.90;;;;;;4953924;29;20657;-76
2023/09/16 03:56:05;;;;;;;3.17;2.37;;;19.10;99.90;;;;;;4953668;29;20627;-76
2023/09/16 03:58:32;;;;;;;4.20;2.87;;;19.10;99.90;;;;;;4943559;29;20676;-76
2023/09/16 04:00:58;;;;;;;2.37;2.00;;;19.10;99.90;;;;;;4921498;29;20625;-76
2023/09/16 04:03:23;;;;;;;4.97;2.43;;;19.10;99.90;;;;;;4921875;29;20999;-76
2023/09/16 04:05:54;;;;;;;2.90;2.30;;;19.10;99.90;;;;;;4953743;29;20515;-76
2023/09/16 04:08:20;;;;;;;3.20;2.00;;;19.10;99.90;;;;;;4953516;29;20195;-75
2023/09/16 04:10:46;;;;;;;2.80;1.90;;;19.10;99.90;;;;;;4911727;29;21056;-75
2023/09/16 04:13:12;;;;;;;2.10;1.90;;;19.00;99.90;;;;;;4935552;29;20267;-76
2023/09/16 04:15:38;;;;;;;3.77;2.57;;;19.00;99.90;;;;;;4937560;29;20227;-76
2023/09/16 04:18:04;;;;;;;2.50;2.00;;;19.10;99.90;;;;;;4953161;29;21219;-75
2023/09/16 04:20:30;;;;;;;2.80;2.50;;;19.10;99.90;;;;;;4953488;29;20200;-75
2023/09/16 04:22:55;;;;;;;4.20;2.30;;;19.10;99.90;;;;;;4929066;29;20585;-76
2023/09/16 04:25:22;;;;;;;5.30;2.77;;;19.00;99.90;;;;;;4918642;29;20908;-75
2023/09/16 04:27:48;;;;;;;2.53;1.70;;;19.10;99.90;;;;;;4934197;29;20177;-76
2023/09/16 04:30:14;;;;;;;3.40;2.20;;;19.00;99.90;;;;;;4918256;29;20597;-75
2023/09/16 04:32:40;;;;;;;4.33;2.07;;;19.10;99.90;;;;;;4933827;29;20599;-76
2023/09/16 04:35:07;;;;;;;4.50;2.03;;;19.10;99.90;;;;;;4934132;29;20673;-76
2023/09/16 04:37:36;;;;;;;2.07;1.80;;;19.00;99.90;;;;;;4918157;29;20697;-76
2023/09/16 04:40:09;;;;;;;3.20;2.27;;;19.10;99.90;;;;;;4917854;29;20752;-76
2023/09/16 04:42:36;;;;;;;3.40;2.67;;;19.00;99.90;;;;;;4933767;29;20653;-76
2023/09/16 04:45:04;;;;;;;3.07;2.03;;;19.00;99.90;;;;;;4900338;29;20915;-76
2023/09/16 04:47:30;;;;;;;2.80;2.50;;;19.00;99.90;;;;;;4935176;29;20585;-76
2023/09/16 04:49:56;;;;;;;2.47;1.93;;;19.00;99.90;;;;;;4933721;29;20624;-76
2023/09/16 04:52:23;;;;;;;4.17;2.43;;;19.00;99.90;;;;;;4917893;29;20237;-76
2023/09/16 04:54:53;;;;;;;3.20;2.77;;;19.00;99.90;;;;;;4918016;29;20193;-76
2023/09/16 04:57:19;;;;;;;2.43;2.00;;;18.90;99.90;;;;;;4931492;29;21145;-76
2023/09/16 04:59:45;;;;;;;4.93;2.13;;;18.90;99.90;;;;;;4922001;29;20755;-76
2023/09/16 05:02:12;;;;;;;3.73;2.40;;;18.90;99.90;;;;;;4893905;29;20583;-76
2023/09/16 05:04:38;;;;;;;2.80;2.20;;;18.90;99.90;;;;;;4933245;29;20597;-76
2023/09/16 05:07:07;;;;;;;2.80;2.20;;;18.90;99.90;;;;;;4940359;29;20575;-76
2023/09/16 05:09:32;;;;;;;2.90;2.33;;;18.90;99.90;;;;;;4898694;29;20221;-76
2023/09/16 05:11:58;;;;;;;3.20;2.17;;;18.90;99.90;;;;;;4897609;29;21161;-76
2023/09/16 05:14:24;;;;;;;2.90;2.30;;;18.90;99.90;;;;;;4914651;29;20178;-76
2023/09/16 05:16:50;;;;;;;2.57;2.30;;;18.90;99.90;;;;;;4914477;29;20190;-76
2023/09/16 05:19:16;;;;;;;2.67;2.33;;;18.90;99.90;;;;;;4898546;29;20669;-76
2023/09/16 05:21:42;;;;;;;4.00;2.33;;;18.90;99.90;;;;;;4914275;29;20586;-76
2023/09/16 05:24:08;;;;;;;3.03;1.80;;;18.90;99.90;;;;;;4883208;29;20213;-75
2023/09/16 05:26:34;;;;;;;3.73;2.47;;;18.90;99.90;;;;;;4883183;29;21235;-76
2023/09/16 05:29:00;;;;;;;4.90;2.40;;;18.80;99.90;;;;;;4898190;29;20701;-76
2023/09/16 05:31:29;;;;;;;4.30;3.07;;;18.80;99.90;;;;;;4898760;29;20181;-75
2023/09/16 05:33:54;;;;;;;4.37;2.63;;;18.80;99.90;;;;;;4916598;29;20627;-75
2023/09/16 05:36:20;;;;;;;3.20;2.43;;;18.80;99.90;;;;;;4917894;29;20620;-75
2023/09/16 05:38:46;;;;;;;5.47;2.80;;;18.80;99.90;;;;;;4933036;29;20902;-76
2023/09/16 05:41:12;;;;;;;4.00;2.30;;;18.80;99.90;;;;;;4932891;29;20670;-76
2023/09/16 05:43:38;;;;;;;3.60;1.77;;;18.80;99.90;;;;;;4914090;29;20192;-75
2023/09/16 05:46:05;;;;;;;8.10;2.40;;;18.90;99.90;;;;;;4912026;29;21245;-75
2023/09/16 05:48:32;;;;;;;3.60;2.50;;;18.90;99.90;;;;;;4901300;29;20209;-75
2023/09/16 05:50:58;;;;;;;3.33;2.77;;;18.90;99.90;;;;;;4933012;29;20653;-76
2023/09/16 05:53:27;;;;;;;3.33;2.87;;;18.90;99.90;;;;;;4921109;29;20182;-76
2023/09/16 05:55:56;;;;;;;3.30;2.17;;;18.90;99.90;;;;;;4913718;29;20590;-76
2023/09/16 05:58:22;;;;;;;3.47;3.13;;;19.00;99.90;;;;;;4919909;29;21021;-76
2023/09/16 06:00:56;;;;;;;2.93;2.20;;;19.00;99.90;;;;;;4937352;29;20580;-76
2023/09/16 06:03:24;;;;;;;3.50;2.70;;;19.10;99.90;;;;;;4930765;29;21157;-77
2023/09/16 06:05:56;;;;;;;4.07;2.23;;;19.10;99.90;;;;;;4897905;29;20597;-76
2023/09/16 06:08:23;;;;;;;3.50;2.80;;;19.10;99.90;;;;;;4913405;29;20704;-76
2023/09/16 06:10:48;;;;;;;4.63;2.70;;;19.20;99.90;;;;;;4914709;29;21201;-76
2023/09/16 06:13:14;;;;;;;5.10;2.23;;;19.20;99.90;;;;;;4881907;29;20524;-76
2023/09/16 06:15:40;;;;;;;4.37;2.60;;;19.20;99.90;;;;;;4914842;29;20173;-76
2023/09/16 06:18:06;;;;;;;2.90;2.40;;;19.20;99.90;;;;;;4897472;29;20324;-75
2023/09/16 06:20:32;;;;;;;3.00;2.27;;;19.30;99.90;;;;;;4913476;29;20272;-76
2023/09/16 06:23:02;;;;;;;4.20;2.60;;;19.30;99.90;;;;;;4897198;29;20925;-76
2023/09/16 06:25:30;;;;;;;5.03;2.80;;;19.40;99.90;;;;;;4909300;29;20589;-75
2023/09/16 06:27:58;;;;;;;2.60;1.73;;;19.40;99.90;;;;;;4932371;29;20609;-76
2023/09/16 06:30:24;;;;;;;3.27;2.40;;;19.50;99.90;;;;;;4932353;29;20587;-76
2023/09/16 06:32:54;;;;;;;4.90;2.60;;;19.60;99.90;;;;;;4933456;29;20597;-76
2023/09/16 06:35:20;;;;;;;2.90;2.60;;;19.60;99.90;;;;;;4915807;29;20589;-75
2023/09/16 06:37:46;;;;;;;3.43;2.30;;;19.70;99.90;;;;;;4897664;29;20613;-76
2023/09/16 06:40:12;;;;;;;4.80;2.57;;;19.70;99.90;;;;;;4914397;29;21005;-76
2023/09/16 06:42:37;;;;;;;2.97;2.60;;;19.80;99.90;;;;;;4916250;29;20184;-76
2023/09/16 06:45:03;;;;;;;4.00;2.90;;;19.90;99.90;;;;;;4916537;29;20585;-75
2023/09/16 06:47:29;;;;;;;2.93;2.13;;;20.00;99.90;;;;;;4899508;29;20180;-75
2023/09/16 06:49:56;;;;;;;3.27;2.37;;;20.10;99.90;;;;;;4915950;29;20616;-74
2023/09/16 06:52:22;;;;;;;2.33;1.73;;;20.10;99.90;;;;;;4939487;29;20188;-74
2023/09/16 06:54:49;;;;;;;3.60;2.13;;;20.20;99.90;;;;;;4932601;29;20976;-75
2023/09/16 06:57:15;;;;;;;4.33;3.03;;;20.30;99.90;;;;;;4932865;29;20595;-74
2023/09/16 06:59:45;;;;;;;2.77;2.10;;;20.50;99.90;;;;;;4932508;29;20668;-74
2023/09/16 07:02:11;;;;;;;3.27;2.50;;;20.60;99.90;;;;;;4940617;29;20589;-74
2023/09/16 07:04:40;;;;;;;2.50;1.97;;;20.70;99.90;;;;;;4933341;29;20655;-75
2023/09/16 07:07:09;;;;;;;3.50;2.13;;;21.00;99.90;;;;;;4914713;29;20173;-75
2023/09/16 07:09:35;;;;;;;2.33;1.83;;;21.50;99.90;;;;;;4931408;29;21095;-75
2023/09/16 07:12:00;;;;;;;2.37;1.30;;;22.10;99.90;;;;;;4942002;29;20592;-75
2023/09/16 07:14:26;;;;;;;4.07;1.90;;;22.70;99.90;;;;;;4918951;29;20263;-74
2023/09/16 07:16:52;;;;;;;4.40;1.60;;;23.30;99.90;;;;;;4925147;29;20587;-75
2023/09/16 07:19:18;;;;;;;2.40;1.63;;;24.00;99.90;;;;;;4923598;29;20262;-75
2023/09/16 07:21:43;;;;;;;2.60;1.73;;;24.70;99.90;;;;;;4912419;29;20246;-74
2023/09/16 07:24:09;;;;;;;1.83;1.50;;;25.30;99.90;;;;;;4920539;29;20209;-73
2023/09/16 07:26:35;;;;;;;2.43;1.80;;;25.90;99.90;;;;;;4900081;29;20193;-74
2023/09/16 07:29:01;;;;;;;2.53;1.60;;;26.60;99.90;;;;;;4936951;29;20226;-74
2023/09/16 07:31:27;;;;;;;5.23;1.70;;;27.30;99.90;;;;;;4921127;29;20217;-74
2023/09/16 07:33:52;;;;;;;4.33;1.60;;;27.70;99.90;;;;;;4951345;28;20592;-75
2023/09/16 07:36:18;;;;;;;3.10;1.27;;;28.20;99.90;;;;;;4954952;29;20216;-75
2023/09/16 07:38:44;;;;;;;1.90;1.43;;;28.30;99.90;;;;;;4935226;29;20217;-74
2023/09/16 07:41:10;;;;;;;2.47;1.30;;;28.30;99.90;;;;;;4917314;29;20192;-76
2023/09/16 07:43:36;;;;;;;2.37;2.03;;;28.50;99.90;;;;;;4954849;29;20591;-75
2023/09/16 07:46:02;;;;;;;2.57;1.50;;;28.60;99.90;;;;;;4954083;29;20591;-75
2023/09/16 07:48:28;;;;;;;3.70;1.77;;;28.60;99.00;;;;;;4955146;29;20248;-75
2023/09/16 07:50:54;;;;;;;2.10;1.40;;;28.70;99.10;;;;;;4944431;29;20196;-75
2023/09/16 07:53:21;;;;;;;3.30;1.80;;;28.90;99.00;;;;;;4929504;29;20209;-75
2023/09/16 07:55:46;;;;;;;3.97;1.67;;;29.30;99.30;;;;;;4949501;29;20683;-75
2023/09/16 07:58:12;;;;;;;5.03;1.50;;;29.80;98.10;;;;;;4940344;29;21267;-74
2023/09/16 08:00:38;;;;;;;2.37;1.50;;;29.90;95.90;;;;;;4945585;29;20186;-74
2023/09/16 08:03:04;;;;;;;2.20;1.50;;;30.00;94.60;;;;;;4946622;29;20209;-74
2023/09/16 08:05:29;;;;;;;3.20;2.13;;;30.10;94.50;;;;;;4958410;29;20200;-73
2023/09/16 08:07:55;;;;;;;3.03;1.60;;;30.20;93.10;;;;;;4953724;29;20608;-74
2023/09/16 08:10:21;;;;;;;2.00;1.47;;;30.30;93.20;;;;;;4937753;29;20184;-74
2023/09/16 08:12:47;;;;;;;2.00;1.60;;;30.40;92.60;;;;;;4947964;29;20192;-72
2023/09/16 08:15:12;;;;;;;2.77;1.50;;;30.60;92.40;;;;;;4911272;29;20195;-74
2023/09/16 08:17:38;;;;;;;2.40;1.37;;;30.70;92.20;;;;;;4953176;29;20194;-75
2023/09/16 08:20:09;;;;;;;2.90;1.80;;;31.00;91.30;;;;;;4952968;29;20206;-74
2023/09/16 08:22:35;;;;;;;3.07;1.57;;;31.10;83.90;;;;;;4907301;29;20214;-73
2023/09/16 08:25:03;;;;;;;2.17;1.27;;;31.20;88.50;;;;;;4916419;29;20592;-74
2023/09/16 08:27:29;;;;;;;3.90;1.50;;;31.20;87.00;;;;;;4944684;29;20629;-73
2023/09/16 08:29:54;;;;;;;3.13;1.40;;;31.40;88.40;;;;;;4935298;29;21182;-73
2023/09/16 08:32:22;;;;;;;4.00;1.30;;;31.70;88.50;;;;;;4932068;29;20184;-73
2023/09/16 08:34:50;;;;;;;1.97;1.20;;;32.20;88.80;;;;;;4954360;29;20597;-73
2023/09/16 08:37:16;;;;;;;2.37;1.80;;;32.70;87.00;;;;;;4954167;29;20587;-73
2023/09/16 08:39:43;;;;;;;3.53;2.07;;;32.90;83.60;;;;;;4954076;29;20650;-73
2023/09/16 08:42:15;;;;;;;4.93;1.70;;;33.20;81.00;;;;;;4953898;29;20619;-73
2023/09/16 08:44:44;;;;;;;2.93;1.40;;;33.40;80.50;;;;;;4944904;29;20692;-73
2023/09/16 08:47:14;;;;;;;1.93;1.40;;;33.40;77.50;;;;;;4936734;28;20589;-73
2023/09/16 08:49:49;;;;;;;2.00;1.30;;;33.60;77.20;;;;;;4945411;29;20620;-74
2023/09/16 08:52:17;;;;;;;2.97;1.70;;;34.00;77.70;;;;;;4953463;29;20655;-74
2023/09/16 08:54:47;;;;;;;2.03;1.10;;;34.50;77.30;;;;;;4936807;29;20596;-75
2023/09/16 08:57:13;;;;;;;2.40;1.37;;;34.70;75.20;;;;;;4920609;29;20588;-74
2023/09/16 08:59:40;;;;;;;3.27;1.63;;;34.90;74.70;;;;;;4952262;29;20758;-73
2023/09/16 09:02:08;;;;;;;2.40;1.50;;;35.40;73.40;;;;;;4952071;29;20595;-73
2023/09/16 09:04:34;;;;;;;2.00;1.17;;;35.60;69.90;;;;;;4946023;29;20612;-72
2023/09/16 09:07:02;;;;;;;3.20;1.47;;;35.80;70.10;;;;;;4943547;29;20592;-73
2023/09/16 09:09:28;;;;;;;2.10;1.40;;;36.20;68.90;;;;;;4947296;29;20627;-74
2023/09/16 09:11:56;;;;;;;3.03;1.37;;;36.30;65.70;;;;;;4941494;29;20646;-73
2023/09/16 09:14:23;;;;;;;3.20;1.30;;;36.30;65.10;;;;;;4920333;29;20588;-73
2023/09/16 09:16:51;;;;;;;1.70;1.17;;;36.60;65.50;;;;;;4942042;29;20755;-73
2023/09/16 09:19:20;;;;;;;2.60;1.27;;;36.90;63.50;;;;;;4947179;29;21254;-73
2023/09/16 09:21:47;;;;;;;2.30;1.57;;;37.20;62.80;;;;;;4927661;29;20600;-73
2023/09/16 09:24:13;;;;;;;5.50;1.70;;;37.40;60.00;;;;;;4935960;29;20581;-73
2023/09/16 09:26:39;;;;;;;2.20;1.40;;;37.70;61.10;;;;;;4949981;29;20607;-73
2023/09/16 09:29:09;;;;;;;2.40;1.47;;;38.00;60.60;;;;;;4937500;29;20618;-72
2023/09/16 09:31:36;;;;;;;3.20;1.30;;;38.40;58.80;;;;;;4952729;29;20186;-73
2023/09/16 09:34:02;;;;;;;3.43;1.60;;;38.90;59.10;;;;;;4921037;29;20696;-74
2023/09/16 09:36:32;;;;;;;2.70;1.57;;;39.20;58.10;;;;;;4951864;29;20671;-74
2023/09/16 09:38:58;;;;;;;3.50;1.67;;;39.30;56.80;;;;;;4929169;29;20577;-74
2023/09/16 09:41:24;;;;;;;2.00;1.20;;;39.50;56.10;;;;;;4932366;29;20598;-73
2023/09/16 09:43:52;;;;;;;3.90;1.70;;;39.40;54.70;;;;;;4945763;29;20641;-74
2023/09/16 09:46:20;;;;;;;3.90;1.80;;;39.30;53.10;;;;;;4904128;29;20664;-74
2023/09/16 09:48:46;;;;;;;3.33;1.57;;;39.00;52.40;;;;;;4935747;29;21191;-74
2023/09/16 09:51:19;;;;;;;2.43;1.87;;;38.90;53.00;;;;;;4951151;29;20600;-74
2023/09/16 09:53:47;;;;;;;1.73;1.40;;;38.70;51.20;;;;;;4935621;29;20655;-74
2023/09/16 09:56:13;;;;;;;2.13;1.60;;;38.30;51.70;;;;;;4944567;29;20652;-74
2023/09/16 09:58:40;;;;;;;1.90;1.57;;;38.30;52.60;;;;;;4936789;29;20651;-74
2023/09/16 10:01:07;;;;;;;2.80;1.60;;;38.40;52.80;;;;;;4935047;29;20207;-73
2023/09/16 10:03:33;;;;;;;2.87;1.63;;;38.50;52.70;;;;;;4948507;29;20629;-74
2023/09/16 10:06:27;;;;;;;;;;;;;;;;;;;;;
2023/09/16 10:09:37;;;;;;;3.10;2.07;;;38.70;51.70;;;;;;4921294;29;20647;-72
2023/09/16 10:12:04;;;;;;;3.67;2.00;;;38.60;51.20;;;;;;4921771;29;20589;-76
2023/09/16 10:14:32;;;;;;;2.77;1.80;;;38.70;51.50;;;;;;4931770;29;20184;-72
2023/09/16 10:16:58;;;;;;;3.13;1.57;;;38.70;50.40;;;;;;4930372;29;20726;-73
2023/09/16 10:19:26;;;;;;;2.00;1.37;;;38.40;50.40;;;;;;4945832;29;20747;-73
2023/09/16 10:21:52;;;;;;;3.83;1.97;;;38.50;50.70;;;;;;4946313;29;20590;-73
2023/09/16 10:24:18;;;;;;;2.27;1.80;;;38.40;50.20;;;;;;4923872;29;21149;-73
2023/09/16 10:26:44;;;;;;;3.20;2.00;;;38.30;50.20;;;;;;4916283;29;20636;-73
2023/09/16 10:29:12;;;;;;;3.53;1.90;;;38.10;50.10;;;;;;4936827;29;20644;-73
2023/09/16 10:31:41;;;;;;;4.60;1.50;;;37.70;49.80;;;;;;4939767;29;20187;-73
2023/09/16 10:34:08;;;;;;;3.40;2.00;;;37.50;50.40;;;;;;4928539;29;20594;-74
2023/09/16 10:36:35;;;;;;;2.03;1.83;;;37.40;50.50;;;;;;4940502;29;20604;-74
2023/09/16 10:39:02;;;;;;;2.17;1.97;;;37.40;51.10;;;;;;4938301;29;20711;-74
2023/09/16 10:41:30;;;;;;;1.90;1.67;;;37.50;51.10;;;;;;4944145;29;20583;-73
2023/09/16 10:43:58;;;;;;;2.83;1.63;;;37.60;51.10;;;;;;4945739;29;20975;-74
2023/09/16 10:46:35;;;;;;;2.90;1.63;;;37.60;51.40;;;;;;4920405;29;20600;-75
2023/09/16 10:49:00;;;;;;;1.90;1.57;;;37.60;51.10;;;;;;4950899;29;20616;-74
2023/09/16 10:51:53;;;;;;;2.07;1.50;;;37.80;51.40;;;;;;4947511;29;20591;-74
2023/09/16 10:54:29;;;;;;;4.80;1.57;;;37.80;50.90;;;;;;4918969;29;20213;-75
2023/09/16 10:57:03;;;;;;;3.27;2.10;;;37.80;50.30;;;;;;4918081;29;20577;-74
2023/09/16 10:59:31;;;;;;;3.87;1.87;;;37.90;50.70;;;;;;4931694;29;20695;-74
2023/09/16 11:02:12;;;;;;;2.23;1.60;;;38.10;50.90;;;;;;4927136;29;20605;-74
2023/09/16 11:04:39;;;;;;;2.10;1.47;;;38.20;50.30;;;;;;4937798;29;20581;-75
2023/09/16 11:07:04;;;;;;;2.30;1.73;;;38.40;50.30;;;;;;4913774;29;21167;-75
2023/09/16 11:09:30;;;;;;;2.67;1.60;;;38.40;49.50;;;;;;4909968;29;20638;-75
2023/09/16 11:11:57;;;;;;;3.27;2.63;;;38.40;49.90;;;;;;4934760;29;20261;-74
2023/09/16 11:14:23;;;;;;;1.90;1.57;;;38.30;49.00;;;;;;4942532;29;20184;-73
2023/09/16 11:16:51;;;;;;;2.30;1.70;;;38.10;49.00;;;;;;4904057;29;20616;-74
2023/09/16 11:19:25;;;;;;;2.97;1.60;;;38.10;49.20;;;;;;4916018;29;20665;-74
2023/09/16 11:21:52;;;;;;;2.73;2.03;;;38.00;48.90;;;;;;4935271;29;20619;-75
2023/09/16 11:24:18;;;;;;;3.50;2.10;;;38.00;49.30;;;;;;4943238;29;20676;-75
2023/09/16 11:26:49;;;;;;;2.10;1.47;;;38.10;49.50;;;;;;4936582;29;20699;-75
2023/09/16 11:29:25;;;;;;;2.07;1.73;;;38.10;49.20;;;;;;4935099;29;20200;-74
2023/09/16 11:31:55;;;;;;;3.50;1.93;;;38.10;49.20;;;;;;4942258;29;20599;-73
2023/09/16 11:34:23;;;;;;;2.50;2.30;;;38.20;49.30;;;;;;4921808;29;20577;-75
2023/09/16 11:36:54;;;;;;;2.20;1.60;;;38.10;48.50;;;;;;4936553;29;20588;-74
2023/09/16 11:39:34;;;;;;;4.80;2.40;;;37.90;48.40;;;;;;4918968;29;20815;-75
2023/09/16 11:41:59;;;;;;;3.13;2.13;;;37.90;48.70;;;;;;4934580;29;20685;-75
2023/09/16 11:44:27;;;;;;;3.53;2.40;;;37.90;48.60;;;;;;4934748;29;20695;-75
2023/09/16 11:46:54;;;;;;;4.93;1.90;;;37.80;48.50;;;;;;4923414;29;20260;-77
2023/09/16 11:49:21;;;;;;;2.43;1.80;;;37.70;48.40;;;;;;4923452;29;20683;-76
2023/09/16 11:51:50;;;;;;;2.10;1.90;;;37.50;48.20;;;;;;4911411;29;20744;-76
2023/09/16 11:54:18;;;;;;;2.40;2.20;;;37.30;48.20;;;;;;4920705;29;20590;-76
2023/09/16 11:56:44;;;;;;;2.90;2.13;;;37.00;47.80;;;;;;4916903;29;20639;-77
2023/09/16 11:59:10;;;;;;;2.40;2.10;;;36.60;47.90;;;;;;4932666;29;20656;-77
2023/09/16 12:01:40;;;;;;;2.20;1.93;;;36.30;48.20;;;;;;4917633;29;20592;-77
2023/09/16 12:04:08;;;;;;;2.47;2.17;;;36.20;48.60;;;;;;4919414;29;20601;-76
2023/09/16 12:06:38;;;;;;;3.23;2.30;;;36.10;48.80;;;;;;4934339;29;20597;-76
2023/09/16 12:09:09;;;;;;;4.00;1.97;;;36.10;48.90;;;;;;4940208;29;20623;-76
2023/09/16 12:11:37;;;;;;;3.03;2.50;;;36.00;49.10;;;;;;4905799;29;20592;-76
2023/09/16 12:14:04;;;;;;;3.30;2.30;;;36.00;49.60;;;;;;4947612;28;20588;-76
2023/09/16 12:16:30;;;;;;;3.07;2.27;;;35.90;49.50;;;;;;4902483;29;20598;-77
2023/09/16 12:18:58;;;;;;;4.87;2.03;;;35.90;49.60;;;;;;4922546;29;20654;-76
2023/09/16 12:21:24;;;;;;;3.67;2.47;;;35.80;49.40;;;;;;4944122;29;20592;-76
2023/09/16 12:23:51;;;;;;;2.97;2.20;;;35.60;49.10;;;;;;4935953;29;20180;-76
2023/09/16 12:26:18;;;;;;;3.50;2.70;;;35.30;48.80;;;;;;4942227;29;20648;-78
2023/09/16 12:28:44;;;;;;;2.30;1.80;;;35.00;49.20;;;;;;4937239;29;20623;-77
2023/09/16 12:31:10;;;;;;;2.60;2.03;;;34.80;49.60;;;;;;4936872;29;20592;-77
2023/09/16 12:33:45;;;;;;;2.70;2.20;;;34.70;49.80;;;;;;4950174;29;20643;-77
2023/09/16 12:36:24;;;;;;;2.93;2.23;;;34.50;50.00;;;;;;4917938;29;20685;-77
2023/09/16 12:38:51;;;;;;;4.77;1.77;;;34.40;50.30;;;;;;4918304;29;20652;-78
2023/09/16 12:41:17;;;;;;;2.40;1.90;;;34.40;50.50;;;;;;4938654;29;20593;-77
2023/09/16 12:43:45;;;;;;;3.20;2.00;;;34.30;50.70;;;;;;4945672;29;20595;-76
2023/09/16 12:46:15;;;;;;;2.20;1.70;;;34.20;50.50;;;;;;4936708;29;20595;-77
2023/09/16 12:48:45;;;;;;;3.27;2.30;;;33.80;50.50;;;;;;4940455;29;20622;-76